Time;durP1;ratioP1;P1;durP2;ratioP2;P2;SDS_P1;SDS_P2;PMS_P1;PMS_P2;Temp;Humidity;BMP_temperature;BMP_pressure;BME280_temperature;BME280_humidity;BME280_pressure;Samples;Min_cycle;Max_cycle;Signal;HPM_P1;HPM_P2
2023/12/21 00:00:28;;;;;;;10.50;3.70;;;;;;;8.53;100.00;100621.34;5098360;28;20094;-67
2023/12/21 00:03:17;;;;;;;9.65;3.30;;;;;;;8.54;100.00;100614.03;5092016;28;20415;-67
2023/12/21 00:06:05;;;;;;;11.30;3.72;;;;;;;8.56;100.00;100611.84;5092139;28;20043;-67
2023/12/21 00:08:55;;;;;;;13.25;4.00;;;;;;;8.57;100.00;100601.81;5072776;28;20117;-66
2023/12/21 00:11:43;;;;;;;10.18;3.10;;;;;;;8.55;100.00;100587.69;5082742;28;20111;-67
2023/12/21 00:14:31;;;;;;;11.40;3.40;;;;;;;8.56;100.00;100592.03;5092394;28;20084;-68
2023/12/21 00:17:19;;;;;;;8.48;3.20;;;;;;;8.54;100.00;100567.88;5090585;28;20048;-68
2023/12/21 00:20:08;;;;;;;12.57;2.90;;;;;;;8.55;100.00;100571.38;5090888;28;20078;-67
2023/12/21 00:22:56;;;;;;;10.43;3.10;;;;;;;8.53;100.00;100569.75;5067577;28;20048;-66
2023/12/21 00:25:44;;;;;;;9.10;3.45;;;;;;;8.54;100.00;100565.16;5080065;28;20043;-67
2023/12/21 00:28:32;;;;;;;11.98;3.72;;;;;;;8.53;100.00;100564.31;5086273;28;20071;-66
2023/12/21 00:31:20;;;;;;;11.32;3.30;;;;;;;8.52;100.00;100559.97;5092199;28;20048;-68
2023/12/21 00:34:08;;;;;;;11.32;3.47;;;;;;;8.51;100.00;100552.91;5077892;28;20161;-67
2023/12/21 00:36:56;;;;;;;10.52;3.17;;;;;;;8.52;100.00;100549.09;5090989;28;20052;-68
2023/12/21 00:39:44;;;;;;;10.73;3.45;;;;;;;8.53;100.00;100548.00;5090864;28;20043;-67
2023/12/21 00:42:33;;;;;;;10.98;3.63;;;;;;;8.52;100.00;100546.38;5092030;28;20054;-67
2023/12/21 00:45:21;;;;;;;11.80;3.53;;;;;;;8.54;100.00;100535.28;5056751;28;20131;-67
2023/12/21 00:48:09;;;;;;;10.15;3.50;;;;;;;8.55;100.00;100528.75;5088256;28;20036;-68
2023/12/21 00:50:58;;;;;;;11.15;3.50;;;;;;;8.55;100.00;100515.19;5090787;28;20089;-68
2023/12/21 00:53:46;;;;;;;10.85;3.70;;;;;;;8.55;100.00;100514.38;5091791;28;20066;-68
2023/12/21 00:56:34;;;;;;;12.27;3.50;;;;;;;8.57;100.00;100510.31;5107078;28;20044;-68
2023/12/21 00:59:23;;;;;;;12.65;3.58;;;;;;;8.57;100.00;100509.50;5101776;28;21241;-67
2023/12/21 01:02:11;;;;;;;8.73;3.47;;;;;;;8.58;100.00;100502.97;5071140;28;20162;-67
2023/12/21 01:04:59;;;;;;;9.82;3.20;;;;;;;8.58;100.00;100505.69;5057788;28;20510;-67
2023/12/21 01:07:47;;;;;;;9.55;3.60;;;;;;;8.59;100.00;100501.91;5071416;28;20489;-68
2023/12/21 01:10:38;;;;;;;11.23;3.30;;;;;;;8.57;100.00;100493.19;5071199;28;20554;-68
2023/12/21 01:13:26;;;;;;;8.70;2.80;;;;;;;8.58;100.00;100490.22;5072904;28;20129;-67
2023/12/21 01:16:16;;;;;;;7.95;2.90;;;;;;;8.58;100.00;100473.09;5078229;28;20127;-68
2023/12/21 01:19:04;;;;;;;9.02;2.88;;;;;;;8.58;100.00;100460.34;5091522;28;20048;-66
2023/12/21 01:21:52;;;;;;;9.70;3.10;;;;;;;8.58;100.00;100467.66;5092199;28;20172;-67
2023/12/21 01:24:40;;;;;;;10.60;3.03;;;;;;;8.57;100.00;100471.47;5073843;28;20064;-68
2023/12/21 01:27:28;;;;;;;11.55;3.40;;;;;;;8.58;100.00;100467.66;5085311;28;20071;-66
2023/12/21 01:30:21;;;;;;;9.40;3.22;;;;;;;8.58;100.00;100473.09;5094935;28;20052;-66
2023/12/21 01:33:09;;;;;;;13.57;3.78;;;;;;;8.59;100.00;100458.47;5099086;28;20044;-67
2023/12/21 01:35:58;;;;;;;8.88;3.20;;;;;;;8.57;100.00;100450.56;5111373;28;20044;-65
2023/12/21 01:38:46;;;;;;;9.82;3.00;;;;;;;8.59;100.00;100434.03;5097707;28;20051;-66
2023/12/21 01:41:35;;;;;;;11.45;3.20;;;;;;;8.60;100.00;100438.34;5102634;28;20048;-66
2023/12/21 01:44:23;;;;;;;9.10;3.05;;;;;;;8.59;100.00;100450.31;5125711;28;20128;-65
2023/12/21 01:47:13;;;;;;;12.82;3.65;;;;;;;8.60;100.00;100441.88;5132204;28;20043;-64
2023/12/21 01:50:01;;;;;;;15.18;3.70;;;;;;;8.61;100.00;100418.25;5092566;28;20040;-66
2023/12/21 01:52:50;;;;;;;12.25;3.67;;;;;;;8.63;100.00;100410.66;5094489;28;20524;-67
2023/12/21 01:55:38;;;;;;;11.45;3.50;;;;;;;8.62;100.00;100409.84;5115232;28;20056;-68
2023/12/21 01:58:27;;;;;;;8.88;3.08;;;;;;;8.63;100.00;100413.38;5108276;28;20048;-68
2023/12/21 02:01:18;;;;;;;10.27;3.72;;;;;;;8.64;100.00;100415.03;5094473;28;20048;-68
2023/12/21 02:04:07;;;;;;;9.23;3.45;;;;;;;8.63;100.00;100426.97;5091544;28;20044;-67
2023/12/21 02:06:55;;;;;;;14.45;3.95;;;;;;;8.63;100.00;100438.63;5073574;28;20055;-69
2023/12/21 02:09:43;;;;;;;11.85;3.58;;;;;;;8.63;100.00;100433.19;5088002;28;20087;-68
2023/12/21 02:12:31;;;;;;;12.02;3.63;;;;;;;8.64;100.00;100432.13;5079689;28;20055;-67
2023/12/21 02:15:19;;;;;;;9.65;3.45;;;;;;;8.65;100.00;100433.75;5092497;28;20044;-67
2023/12/21 02:18:08;;;;;;;14.35;3.50;;;;;;;8.64;100.00;100415.03;5076262;28;20048;-68
2023/12/21 02:20:58;;;;;;;11.52;3.40;;;;;;;8.65;100.00;100408.50;5078482;28;20040;-67
2023/12/21 02:23:47;;;;;;;13.07;3.97;;;;;;;8.63;100.00;100413.38;5094917;28;20040;-67
2023/12/21 02:26:35;;;;;;;10.10;3.17;;;;;;;8.64;100.00;100412.31;5093383;28;20105;-68
2023/12/21 02:29:23;;;;;;;9.93;3.10;;;;;;;8.66;100.00;100396.53;5076672;28;20075;-67
2023/12/21 02:32:11;;;;;;;11.52;3.70;;;;;;;8.64;100.00;100385.97;5078168;28;20040;-67
2023/12/21 02:34:59;;;;;;;14.10;3.95;;;;;;;8.64;100.00;100371.56;5093857;28;20046;-67
2023/12/21 02:37:47;;;;;;;14.55;4.07;;;;;;;8.64;100.00;100363.44;5079391;28;20048;-67
2023/12/21 02:40:35;;;;;;;10.88;3.65;;;;;;;8.65;100.00;100365.88;5087811;28;20044;-67
2023/12/21 02:43:24;;;;;;;13.88;3.92;;;;;;;8.64;100.00;100358.00;5078261;28;20503;-68
2023/12/21 02:46:12;;;;;;;16.23;4.28;;;;;;;8.64;100.00;100352.56;5087925;28;20031;-69
2023/12/21 02:49:00;;;;;;;9.57;3.17;;;;;;;8.67;100.00;100363.69;5114430;28;20523;-67
2023/12/21 02:51:48;;;;;;;10.57;3.35;;;;;;;8.66;100.00;100361.25;5083781;28;20051;-67
2023/12/21 02:54:36;;;;;;;11.88;3.70;;;;;;;8.66;100.00;100344.94;5032840;28;20179;-68
2023/12/21 02:57:24;;;;;;;10.23;3.30;;;;;;;8.67;100.00;100343.88;5075421;28;20056;-67
2023/12/21 03:00:12;;;;;;;10.68;3.45;;;;;;;8.66;100.00;100337.63;5094007;28;20062;-67
2023/12/21 03:03:00;;;;;;;14.23;3.80;;;;;;;8.66;100.00;100353.94;5094218;28;20162;-68
2023/12/21 03:05:48;;;;;;;11.50;3.58;;;;;;;8.67;100.00;100343.88;5086719;28;20052;-68
2023/12/21 03:08:36;;;;;;;12.63;4.03;;;;;;;8.67;100.00;100333.00;5067010;28;20129;-68
2023/12/21 03:11:25;;;;;;;10.52;3.60;;;;;;;8.66;100.00;100321.34;5064561;28;20503;-68
2023/12/21 03:14:13;;;;;;;11.73;4.15;;;;;;;8.67;100.00;100314.00;5093144;28;20469;-67
2023/12/21 03:17:01;;;;;;;10.90;3.25;;;;;;;8.66;100.00;100296.06;5092934;28;20507;-68
2023/12/21 03:19:49;;;;;;;15.23;3.55;;;;;;;8.67;100.00;100287.66;5077493;28;20051;-68
2023/12/21 03:22:37;;;;;;;11.75;3.58;;;;;;;8.67;100.00;100260.50;5093689;28;20119;-67
2023/12/21 03:25:25;;;;;;;13.20;4.25;;;;;;;8.67;100.00;100256.97;5078467;28;20044;-66
2023/12/21 03:28:14;;;;;;;16.77;4.07;;;;;;;8.69;100.00;100246.66;5093836;28;20048;-67
2023/12/21 03:31:05;;;;;;;12.63;4.05;;;;;;;8.69;100.00;100246.66;5100219;28;20035;-67
2023/12/21 03:33:53;;;;;;;12.27;3.53;;;;;;;8.67;100.00;100237.97;5093040;28;20040;-67
2023/12/21 03:36:42;;;;;;;14.02;4.03;;;;;;;8.67;100.00;100243.38;5093052;28;20048;-67
2023/12/21 03:39:30;;;;;;;11.43;3.70;;;;;;;8.68;100.00;100239.56;5092030;28;20055;-67
2023/12/21 03:42:18;;;;;;;19.45;4.70;;;;;;;8.67;100.00;100232.53;5093774;28;20401;-67
2023/12/21 03:45:06;;;;;;;12.70;4.50;;;;;;;8.65;100.00;100229.25;5093245;28;20589;-67
2023/12/21 03:47:54;;;;;;;17.23;4.25;;;;;;;8.65;100.00;100218.41;5093066;28;20054;-67
2023/12/21 03:50:42;;;;;;;12.55;4.10;;;;;;;8.66;100.00;100211.88;5058789;28;20511;-68
2023/12/21 03:53:30;;;;;;;15.50;4.10;;;;;;;8.68;100.00;100212.41;5087358;28;20443;-68
2023/12/21 03:56:18;;;;;;;13.70;4.28;;;;;;;8.71;100.00;100203.75;5071456;28;20048;-68
2023/12/21 03:59:06;;;;;;;13.73;3.90;;;;;;;8.71;100.00;100199.13;5071890;28;20178;-68
2023/12/21 04:01:55;;;;;;;14.13;4.10;;;;;;;8.71;100.00;100195.59;5060394;28;20105;-68
2023/12/21 04:04:43;;;;;;;15.88;4.10;;;;;;;8.70;100.00;100183.09;5044550;28;20191;-67
2023/12/21 04:07:31;;;;;;;13.45;4.00;;;;;;;8.69;100.00;100186.91;5071946;28;20040;-67
2023/12/21 04:10:19;;;;;;;13.93;4.35;;;;;;;8.72;100.00;100192.59;5062423;28;20401;-68
2023/12/21 04:13:08;;;;;;;15.68;4.28;;;;;;;8.70;100.00;100185.81;5077044;28;20048;-68
2023/12/21 04:15:56;;;;;;;18.00;4.38;;;;;;;8.70;100.00;100164.09;5092169;28;20122;-68
2023/12/21 04:18:43;;;;;;;11.90;3.78;;;;;;;8.71;100.00;100158.38;5077549;28;20040;-68
2023/12/21 04:21:32;;;;;;;14.80;4.50;;;;;;;8.72;100.00;100142.91;5078981;28;20056;-67
2023/12/21 04:24:20;;;;;;;15.60;4.40;;;;;;;8.72;100.00;100132.84;5078160;28;20050;-68
2023/12/21 04:27:08;;;;;;;13.88;4.40;;;;;;;8.73;100.00;100133.66;5092025;28;20052;-68
2023/12/21 04:29:56;;;;;;;18.05;4.55;;;;;;;8.74;100.00;100138.03;5075850;28;20040;-67
2023/12/21 04:32:44;;;;;;;14.77;3.92;;;;;;;8.77;100.00;100115.75;5092033;28;20051;-67
2023/12/21 04:35:32;;;;;;;17.08;4.30;;;;;;;8.78;100.00;100103.81;5063401;28;20048;-68
2023/12/21 04:38:20;;;;;;;16.20;4.53;;;;;;;8.76;100.00;100089.69;5091491;28;20123;-67
2023/12/21 04:41:08;;;;;;;18.05;4.60;;;;;;;8.79;100.00;100089.13;5085670;28;20051;-66
2023/12/21 04:43:56;;;;;;;19.52;4.55;;;;;;;8.82;100.00;100099.44;5076125;28;20079;-68
2023/12/21 04:46:47;;;;;;;18.52;4.78;;;;;;;8.82;100.00;100094.00;5082347;28;20053;-68
2023/12/21 04:49:36;;;;;;;15.93;4.68;;;;;;;8.85;100.00;100081.75;5056685;28;20503;-67
2023/12/21 04:52:24;;;;;;;15.32;4.57;;;;;;;8.88;100.00;100071.19;5073152;28;20492;-67
2023/12/21 04:55:12;;;;;;;18.58;4.60;;;;;;;8.88;100.00;100059.50;5061205;28;20061;-67
2023/12/21 04:58:00;;;;;;;15.70;3.78;;;;;;;8.94;100.00;100055.66;5043417;28;20045;-68
2023/12/21 05:00:50;;;;;;;19.38;4.97;;;;;;;8.92;100.00;100034.22;5036914;28;20408;-68
2023/12/21 05:03:39;;;;;;;11.27;3.72;;;;;;;8.93;100.00;100030.41;5064297;28;20052;-68
2023/12/21 05:06:27;;;;;;;16.40;4.60;;;;;;;8.93;100.00;100024.16;5071864;28;20412;-68
2023/12/21 05:09:15;;;;;;;18.20;4.40;;;;;;;8.93;100.00;100040.47;5057738;28;20098;-68
2023/12/21 05:12:04;;;;;;;17.05;4.53;;;;;;;9.00;100.00;100040.19;5058248;28;20146;-68
2023/12/21 05:14:52;;;;;;;16.02;4.70;;;;;;;8.99;100.00;100033.09;5051218;28;20048;-69
2023/12/21 05:17:39;;;;;;;16.00;4.60;;;;;;;8.99;100.00;100016.81;5071546;28;20044;-68
2023/12/21 05:20:28;;;;;;;17.50;4.43;;;;;;;8.99;100.00;100027.69;5070223;28;20056;-68
2023/12/21 05:23:15;;;;;;;17.20;4.47;;;;;;;9.00;100.00;100029.31;5059395;28;20400;-68
2023/12/21 05:26:10;;;;;;;16.73;4.45;;;;;;;9.01;100.00;100018.16;5071401;28;20047;-68
2023/12/21 05:28:58;;;;;;;17.13;4.78;;;;;;;9.04;100.00;100006.72;5071678;28;20048;-68
2023/12/21 05:31:46;;;;;;;15.13;4.40;;;;;;;9.08;100.00;100001.56;5071626;28;20563;-68
2023/12/21 05:34:34;;;;;;;15.07;4.28;;;;;;;9.06;100.00;100001.81;5048406;28;20497;-68
2023/12/21 05:37:23;;;;;;;14.20;4.05;;;;;;;9.07;100.00;100005.38;5091120;28;20041;-68
2023/12/21 05:40:12;;;;;;;13.10;3.85;;;;;;;9.06;100.00;99996.38;5076774;28;20492;-68
2023/12/21 05:43:00;;;;;;;11.43;3.97;;;;;;;9.06;100.00;100004.53;5076389;28;20071;-67
2023/12/21 05:45:48;;;;;;;16.30;4.38;;;;;;;9.10;100.00;99997.47;5058545;28;20123;-69
2023/12/21 05:48:36;;;;;;;16.98;4.07;;;;;;;9.11;100.00;100009.16;5056057;28;20443;-69
2023/12/21 05:51:25;;;;;;;12.55;3.80;;;;;;;9.12;100.00;100016.22;5044054;28;20453;-65
2023/12/21 05:54:12;;;;;;;13.15;3.85;;;;;;;9.09;100.00;100014.03;5077427;28;20148;-65
2023/12/21 05:57:02;;;;;;;17.73;4.18;;;;;;;9.05;100.00;99999.41;5107702;28;20044;-61
2023/12/21 05:59:50;;;;;;;15.57;4.28;;;;;;;9.03;100.00;100007.03;5102002;28;20040;-65
2023/12/21 06:02:38;;;;;;;13.52;3.67;;;;;;;9.04;100.00;100006.72;5089172;28;20047;-65
2023/12/21 06:05:26;;;;;;;13.52;3.90;;;;;;;9.07;100.00;100008.09;5095527;28;20127;-65
2023/12/21 06:08:14;;;;;;;11.93;3.83;;;;;;;9.08;100.00;99983.34;5106905;28;20048;-64
2023/12/21 06:11:01;;;;;;;12.57;3.50;;;;;;;9.13;100.00;99986.03;5105217;28;20044;-64
2023/12/21 06:13:49;;;;;;;13.98;3.65;;;;;;;9.16;100.00;99984.66;5091927;28;20061;-66
2023/12/21 06:16:37;;;;;;;18.15;3.20;;;;;;;9.20;100.00;99985.75;4391186;28;10000463;-66
2023/12/21 06:19:25;;;;;;;14.65;3.67;;;;;;;9.15;100.00;99962.13;5076539;28;20055;-67
2023/12/21 06:22:15;;;;;;;11.68;3.00;;;;;;;9.14;100.00;99963.22;5090205;28;20051;-67
2023/12/21 06:25:03;;;;;;;15.68;4.10;;;;;;;9.10;100.00;99955.91;5090413;28;20119;-67
2023/12/21 06:27:51;;;;;;;9.85;3.20;;;;;;;9.05;100.00;99948.59;5090719;28;20075;-67
2023/12/21 06:30:39;;;;;;;11.20;3.20;;;;;;;9.04;100.00;99944.22;5075281;28;20097;-66
2023/12/21 06:33:27;;;;;;;8.77;3.15;;;;;;;9.04;100.00;99944.22;5090279;28;20048;-66
2023/12/21 06:36:15;;;;;;;13.80;3.28;;;;;;;9.03;100.00;99941.81;5090197;28;20052;-68
2023/12/21 06:39:03;;;;;;;11.07;2.70;;;;;;;9.03;100.00;99931.75;5087070;28;20522;-68
2023/12/21 06:41:51;;;;;;;11.77;3.40;;;;;;;9.01;100.00;99943.97;5106175;28;20460;-66
2023/12/21 06:44:39;;;;;;;11.40;3.47;;;;;;;9.03;100.00;99936.38;5059649;28;20174;-68
2023/12/21 06:47:27;;;;;;;11.48;3.33;;;;;;;9.05;100.00;99945.88;5062258;28;20044;-67
2023/12/21 06:50:15;;;;;;;11.90;3.40;;;;;;;9.07;100.00;99929.28;5090190;28;20067;-66
2023/12/21 06:53:03;;;;;;;10.90;3.55;;;;;;;9.07;100.00;99932.00;5088531;28;20553;-66
2023/12/21 06:55:54;;;;;;;9.60;3.05;;;;;;;9.06;100.00;99909.44;5074864;28;20125;-66
2023/12/21 06:59:02;;;;;;;9.85;3.30;;;;;;;9.06;100.00;99920.31;5089242;28;20055;-66
2023/12/21 07:01:50;;;;;;;10.27;3.13;;;;;;;9.05;100.00;99907.03;5044059;28;20656;-65
2023/12/21 07:04:38;;;;;;;9.23;3.38;;;;;;;9.04;100.00;99887.16;5042726;28;20045;-65
2023/12/21 07:07:27;;;;;;;7.72;2.70;;;;;;;9.06;100.00;99878.75;5081961;28;20083;-66
2023/12/21 07:10:15;;;;;;;11.43;3.25;;;;;;;9.07;100.00;99869.50;5076198;28;20044;-67
2023/12/21 07:13:03;;;;;;;10.73;3.33;;;;;;;9.05;100.00;99864.34;5096458;28;20063;-66
2023/12/21 07:15:51;;;;;;;9.55;3.42;;;;;;;9.06;100.00;99851.56;5033699;28;20048;-70
2023/12/21 07:18:39;;;;;;;12.55;3.60;;;;;;;9.07;100.00;99858.66;5071480;28;20051;-66
2023/12/21 07:21:28;;;;;;;11.75;3.17;;;;;;;9.08;100.00;99858.34;5089065;28;20036;-66
2023/12/21 07:24:16;;;;;;;12.35;2.92;;;;;;;9.08;100.00;99852.09;5084995;28;20181;-66
2023/12/21 07:27:05;;;;;;;11.75;3.83;;;;;;;9.08;100.00;99836.59;5104774;28;20089;-66
2023/12/21 07:29:53;;;;;;;13.45;3.53;;;;;;;9.11;100.00;99824.34;5059649;28;20351;-66
2023/12/21 07:32:41;;;;;;;11.60;3.05;;;;;;;9.08;100.00;99833.09;5087485;28;20555;-66
2023/12/21 07:35:29;;;;;;;16.02;4.18;;;;;;;9.05;100.00;99826.31;5089162;28;20495;-66
2023/12/21 07:38:17;;;;;;;11.07;3.50;;;;;;;9.05;100.00;99815.44;5108133;28;20432;-67
2023/12/21 07:41:05;;;;;;;11.50;3.15;;;;;;;9.06;100.00;99805.38;5089495;28;20493;-67
2023/12/21 07:43:53;;;;;;;13.38;3.60;;;;;;;9.06;100.00;99810.81;5055110;28;20686;-65
2023/12/21 07:46:41;;;;;;;15.05;3.60;;;;;;;9.11;100.00;99805.34;5088092;28;20148;-67
2023/12/21 07:49:29;;;;;;;13.32;3.17;;;;;;;9.17;100.00;99815.91;5079840;28;20048;-67
2023/12/21 07:52:17;;;;;;;9.25;3.10;;;;;;;9.18;100.00;99800.38;5072645;28;20113;-66
2023/12/21 07:55:06;;;;;;;12.80;3.42;;;;;;;9.19;100.00;99788.44;5056561;28;20705;-65
2023/12/21 07:57:54;;;;;;;11.93;3.45;;;;;;;9.15;100.00;99792.81;5079993;28;20044;-66
2023/12/21 08:00:42;;;;;;;11.93;3.40;;;;;;;9.18;100.00;99789.53;5059671;28;20581;-66
2023/12/21 08:03:30;;;;;;;13.18;3.33;;;;;;;9.18;100.00;99792.25;5057891;28;20404;-65
2023/12/21 08:06:22;;;;;;;10.52;3.17;;;;;;;9.16;100.00;99775.41;5058524;28;20044;-66
2023/12/21 08:09:10;;;;;;;16.27;3.75;;;;;;;9.18;100.00;99782.16;5072217;28;20043;-65
2023/12/21 08:11:58;;;;;;;12.63;3.50;;;;;;;9.22;100.00;99778.91;5096445;28;20152;-65
2023/12/21 08:14:46;;;;;;;13.55;3.13;;;;;;;9.22;100.00;99773.47;5084452;28;20339;-62
2023/12/21 08:17:34;;;;;;;8.45;2.58;;;;;;;9.21;100.00;99780.78;5098125;28;20134;-64
2023/12/21 08:20:23;;;;;;;10.18;3.35;;;;;;;9.19;100.00;99777.56;5113304;28;20555;-66
2023/12/21 08:23:11;;;;;;;6.68;2.50;;;;;;;9.17;100.00;99758.00;5113081;28;20460;-65
2023/12/21 08:25:59;;;;;;;10.95;2.88;;;;;;;9.16;100.00;99751.78;5100388;28;20052;-65
2023/12/21 08:28:47;;;;;;;9.02;2.60;;;;;;;9.16;100.00;99751.78;5092403;28;20052;-65
2023/12/21 08:31:35;;;;;;;8.75;2.80;;;;;;;9.16;100.00;99764.53;5078153;28;20054;-65
2023/12/21 08:34:23;;;;;;;9.93;3.03;;;;;;;9.16;100.00;99761.81;5077709;28;20496;-66
2023/12/21 08:37:14;;;;;;;8.18;2.50;;;;;;;9.17;100.00;99747.94;5071662;28;20036;-65
2023/12/21 08:40:02;;;;;;;8.13;2.58;;;;;;;9.16;100.00;99738.19;5097811;28;20130;-66
2023/12/21 08:42:50;;;;;;;7.18;2.33;;;;;;;9.17;100.00;99750.66;5097273;28;20043;-66
2023/12/21 08:45:39;;;;;;;8.80;2.47;;;;;;;9.20;100.00;99734.88;5111987;28;20471;-66
2023/12/21 08:48:27;;;;;;;13.68;3.97;;;;;;;9.23;100.00;99718.00;5112070;28;20079;-66
2023/12/21 08:51:16;;;;;;;7.25;2.58;;;;;;;9.24;100.00;99714.22;5083175;28;20048;-66
2023/12/21 08:54:06;;;;;;;7.30;2.70;;;;;;;9.26;100.00;99714.72;5086269;28;20512;-65
2023/12/21 08:56:55;;;;;;;9.10;3.00;;;;;;;9.33;100.00;99709.75;5076488;28;20048;-67
2023/12/21 08:59:44;;;;;;;11.32;2.95;;;;;;;9.33;100.00;99702.44;5077886;28;20143;-68
2023/12/21 09:02:37;;;;;;;9.13;2.95;;;;;;;9.31;100.00;99692.94;5100741;28;20036;-66
2023/12/21 09:05:25;;;;;;;9.35;2.63;;;;;;;9.29;100.00;99719.59;5098824;28;20128;-66
2023/12/21 09:08:13;;;;;;;7.80;2.75;;;;;;;9.29;100.00;99717.69;5112569;28;20047;-67
2023/12/21 09:11:01;;;;;;;7.40;2.78;;;;;;;9.32;100.00;99692.63;5112123;28;20418;-66
2023/12/21 09:13:49;;;;;;;10.45;3.35;;;;;;;9.41;100.00;99681.94;5096024;28;20123;-67
2023/12/21 09:16:37;;;;;;;7.72;2.40;;;;;;;9.44;100.00;99686.81;4372000;28;10022613;-68
2023/12/21 09:19:26;;;;;;;9.80;2.85;;;;;;;9.46;100.00;99686.53;5072484;28;20051;-67
2023/12/21 09:22:14;;;;;;;11.50;2.67;;;;;;;9.52;100.00;99680.72;5060264;28;20048;-68
2023/12/21 09:25:04;;;;;;;8.98;2.83;;;;;;;9.56;100.00;99684.50;5054109;28;20539;-68
2023/12/21 09:27:53;;;;;;;10.82;3.40;;;;;;;9.61;100.00;99675.47;5096318;28;20047;-67
2023/12/21 09:30:41;;;;;;;9.82;2.70;;;;;;;9.62;100.00;99665.38;5090726;28;20053;-67
2023/12/21 09:33:32;;;;;;;12.73;3.30;;;;;;;9.58;100.00;99670.63;5059752;28;20040;-66
2023/12/21 09:36:20;;;;;;;14.45;3.60;;;;;;;9.59;100.00;99666.78;5088351;28;20127;-67
2023/12/21 09:39:11;;;;;;;9.35;2.90;;;;;;;9.58;100.00;99665.19;5088099;28;20124;-67
2023/12/21 09:42:00;;;;;;;9.90;2.85;;;;;;;9.59;100.00;99662.16;5072070;28;20056;-67
2023/12/21 09:44:51;;;;;;;10.32;3.08;;;;;;;9.61;100.00;99667.31;5073543;28;20516;-66
2023/12/21 09:47:40;;;;;;;10.18;3.25;;;;;;;9.64;100.00;99661.28;5074831;28;20194;-67
2023/12/21 09:50:29;;;;;;;10.07;3.20;;;;;;;9.71;100.00;99661.75;5057718;28;20470;-67
2023/12/21 09:53:17;;;;;;;9.75;2.92;;;;;;;9.75;100.00;99635.59;5088507;28;20188;-67
2023/12/21 09:56:07;;;;;;;12.35;2.92;;;;;;;9.76;100.00;99661.66;5061018;28;20415;-66
2023/12/21 09:58:56;;;;;;;10.75;3.08;;;;;;;9.82;100.00;99654.28;5054990;28;20566;-67
2023/12/21 10:01:44;;;;;;;13.88;3.10;;;;;;;9.87;100.00;99650.69;5076522;28;20048;-67
2023/12/21 10:04:34;;;;;;;14.30;3.60;;;;;;;9.90;100.00;99650.91;5076596;28;20209;-66
2023/12/21 10:07:23;;;;;;;17.05;3.60;;;;;;;9.91;100.00;99649.81;5091568;28;20055;-67
2023/12/21 10:10:11;;;;;;;12.52;3.05;;;;;;;9.91;100.00;99659.84;5076023;28;20048;-68
2023/12/21 10:12:59;;;;;;;13.52;3.38;;;;;;;9.92;100.00;99647.91;5093601;28;20074;-66
2023/12/21 10:16:00;;;;;;;13.20;3.67;;;;;;;9.93;100.00;99661.22;5077266;28;20051;-61
2023/12/21 10:18:50;;;;;;;12.18;3.15;;;;;;;9.94;100.00;99637.53;5101766;28;20079;-68
2023/12/21 10:21:41;;;;;;;11.30;3.13;;;;;;;9.99;100.00;99651.88;5094003;28;20122;-65
2023/12/21 10:24:30;;;;;;;13.32;3.40;;;;;;;10.03;100.00;99622.16;5090035;28;20079;-60
2023/12/21 10:27:21;;;;;;;11.55;3.80;;;;;;;10.05;100.00;99644.44;5090153;28;20169;-62
2023/12/21 10:30:09;;;;;;;11.00;2.75;;;;;;;10.05;100.00;99617.22;5083997;28;20047;-66
2023/12/21 10:32:57;;;;;;;10.50;2.78;;;;;;;10.10;100.00;99627.22;5081193;28;20052;-65
2023/12/21 10:35:46;;;;;;;11.38;3.63;;;;;;;10.13;100.00;99613.84;5094074;28;20514;-64
2023/12/21 10:38:34;;;;;;;10.40;3.28;;;;;;;10.19;100.00;99620.81;5114639;28;20054;-65
2023/12/21 10:41:22;;;;;;;12.10;3.25;;;;;;;10.23;100.00;99635.47;5095356;28;20148;-65
2023/12/21 10:44:15;;;;;;;12.60;2.70;;;;;;;10.34;100.00;99619.00;5079153;28;20052;-67
2023/12/21 10:47:04;;;;;;;13.70;2.80;;;;;;;10.38;100.00;99609.16;5045977;28;20045;-66
2023/12/21 10:49:52;;;;;;;11.27;2.83;;;;;;;10.39;100.00;99613.47;5068973;28;20040;-66
2023/12/21 10:52:41;;;;;;;10.63;2.90;;;;;;;10.40;100.00;99639.63;5079229;28;20512;-67
2023/12/21 10:55:29;;;;;;;8.93;2.70;;;;;;;10.34;100.00;99643.50;5080871;28;20060;-67
2023/12/21 10:58:17;;;;;;;7.97;2.95;;;;;;;10.31;100.00;99616.88;5063064;28;20193;-67
2023/12/21 11:01:06;;;;;;;11.32;2.72;;;;;;;10.24;100.00;99626.19;5059736;28;20170;-67
2023/12/21 11:03:54;;;;;;;6.95;2.45;;;;;;;10.21;100.00;99629.50;5095520;28;20055;-68
2023/12/21 11:06:43;;;;;;;7.95;2.38;;;;;;;10.20;100.00;99627.91;5058118;28;20053;-66
2023/12/21 11:09:32;;;;;;;8.02;2.53;;;;;;;10.20;100.00;99614.28;5075548;28;20051;-68
2023/12/21 11:12:20;;;;;;;10.02;3.42;;;;;;;10.20;100.00;99606.13;5058593;28;20052;-68
2023/12/21 11:15:08;;;;;;;8.73;2.42;;;;;;;10.21;100.00;99610.44;5087533;28;20170;-69
2023/12/21 11:18:04;;;;;;;9.02;2.50;;;;;;;10.20;100.00;99597.97;5078956;28;20494;-64
2023/12/21 11:20:56;;;;;;;10.20;2.45;;;;;;;10.19;100.00;99595.53;5077547;28;20060;-67
2023/12/21 11:23:44;;;;;;;5.88;2.15;;;;;;;10.20;100.00;99584.34;5064850;28;20115;-65
2023/12/21 11:26:32;;;;;;;6.32;2.50;;;;;;;10.19;100.00;99587.34;5092380;28;20040;-67
2023/12/21 11:29:27;;;;;;;10.63;2.88;;;;;;;10.17;100.00;99593.13;5064067;28;20040;-68
2023/12/21 11:32:24;;;;;;;4.38;1.92;;;;;;;10.15;100.00;99603.47;4707228;28;9999805;-66
2023/12/21 11:35:22;;;;;;;9.85;2.47;;;;;;;10.13;100.00;99589.34;5068831;28;20514;-68
2023/12/21 11:38:11;;;;;;;7.38;2.35;;;;;;;10.12;100.00;99585.00;5046183;28;20182;-66
2023/12/21 11:41:00;;;;;;;11.20;2.45;;;;;;;10.14;100.00;99566.47;5086075;28;20057;-67
2023/12/21 11:44:06;;;;;;;9.23;2.70;;;;;;;10.19;100.00;99584.63;5046300;28;20131;-67
2023/12/21 11:47:00;;;;;;;8.57;2.67;;;;;;;10.22;100.00;99584.88;5089420;28;20122;-68
2023/12/21 11:49:48;;;;;;;8.77;2.50;;;;;;;10.27;100.00;99564.09;5073780;28;20051;-67
2023/12/21 11:52:37;;;;;;;6.00;2.15;;;;;;;10.30;100.00;99560.81;5085183;28;20043;-68
2023/12/21 11:55:26;;;;;;;8.07;2.55;;;;;;;10.30;100.00;99542.56;5094096;28;20074;-66
2023/12/21 11:58:19;;;;;;;9.15;2.50;;;;;;;10.32;100.00;99559.41;5080589;28;20055;-67
2023/12/21 12:01:08;;;;;;;9.88;3.03;;;;;;;10.38;100.00;99535.63;5066937;28;20052;-67
2023/12/21 12:03:57;;;;;;;8.07;2.55;;;;;;;10.40;100.00;99555.22;5045126;28;20068;-67
2023/12/21 12:06:47;;;;;;;10.77;2.55;;;;;;;10.44;100.00;99551.59;5065951;28;20039;-66
2023/12/21 12:09:35;;;;;;;10.02;2.47;;;;;;;10.48;100.00;99551.00;5039978;28;20048;-66
2023/12/21 12:12:23;;;;;;;10.60;2.67;;;;;;;10.50;100.00;99538.69;5085324;28;20044;-68
2023/12/21 12:15:11;;;;;;;8.30;2.97;;;;;;;10.53;100.00;99535.34;5074968;28;20087;-69
2023/12/21 12:18:00;;;;;;;12.38;3.25;;;;;;;10.64;100.00;99519.66;5088941;28;20043;-65
2023/12/21 12:20:49;;;;;;;9.45;2.70;;;;;;;10.68;100.00;99500.78;5068850;28;20040;-67
2023/12/21 12:23:37;;;;;;;11.77;3.03;;;;;;;10.69;100.00;99519.56;5075396;28;20044;-67
2023/12/21 12:26:25;;;;;;;14.35;3.35;;;;;;;10.73;100.00;99523.31;5073075;28;20118;-66
2023/12/21 12:29:16;;;;;;;11.30;2.97;;;;;;;10.76;100.00;99535.50;5089640;28;20554;-67
2023/12/21 12:32:05;;;;;;;10.55;3.20;;;;;;;10.74;100.00;99548.63;5087902;28;20047;-67
2023/12/21 12:34:53;;;;;;;9.20;3.13;;;;;;;10.71;100.00;99513.81;5060683;28;20052;-67
2023/12/21 12:37:41;;;;;;;10.73;2.83;;;;;;;10.67;100.00;99516.31;5087198;28;20056;-70
2023/12/21 12:40:29;;;;;;;12.20;3.08;;;;;;;10.65;100.00;99508.47;5047884;28;20052;-67
2023/12/21 12:43:17;;;;;;;10.15;2.55;;;;;;;10.64;100.00;99501.38;5064408;28;20049;-68
2023/12/21 12:46:06;;;;;;;8.95;3.13;;;;;;;10.62;100.00;99514.50;5086001;28;20039;-68
2023/12/21 12:48:55;;;;;;;8.60;2.67;;;;;;;10.62;100.00;99503.59;5077019;28;20111;-67
2023/12/21 12:51:44;;;;;;;8.18;2.30;;;;;;;10.67;100.00;99502.69;5097795;28;20066;-67
2023/12/21 12:54:32;;;;;;;7.53;2.40;;;;;;;10.67;100.00;99497.25;5087641;28;20135;-67
2023/12/21 12:57:26;;;;;;;7.70;2.65;;;;;;;10.63;100.00;99488.91;5075747;28;20174;-68
2023/12/21 13:00:20;;;;;;;10.00;2.90;;;;;;;10.58;100.00;99502.59;5060803;28;20181;-67